Time;durP1;ratioP1;P1;durP2;ratioP2;P2;SDS_P1;SDS_P2;PMS_P1;PMS_P2;Temp;Humidity;BMP_temperature;BMP_pressure;BME280_temperature;BME280_humidity;BME280_pressure;Samples;Min_cycle;Max_cycle;Signal;HPM_P1;HPM_P2
2022/02/22 00:00:54;;;;;;;6.61;4.92;;;;;;;5.82;56.89;100375.22;461579;113;930537;-75
2022/02/22 00:01:57;;;;;;;6.39;4.65;;;;;;;5.83;56.79;100371.49;460821;112;922609;-75
2022/02/22 00:03:00;;;;;;;6.43;5.16;;;;;;;5.84;56.74;100378.59;461566;113;923040;-75
2022/02/22 00:04:04;;;;;;;7.86;4.11;;;;;;;5.84;56.65;100367.77;461728;113;923477;-74
2022/02/22 00:05:09;;;;;;;6.71;5.27;;;;;;;5.85;56.63;100367.55;460730;111;930574;-76
2022/02/22 00:06:13;;;;;;;7.12;4.87;;;;;;;5.85;56.61;100362.14;461846;112;930573;-75
2022/02/22 00:07:16;;;;;;;5.65;4.23;;;;;;;5.86;56.57;100360.28;461698;112;923044;-75
2022/02/22 00:08:19;;;;;;;6.90;3.98;;;;;;;5.85;56.57;100367.55;462107;112;922631;-75
2022/02/22 00:09:23;;;;;;;6.42;4.79;;;;;;;5.86;56.56;100360.28;462667;111;922452;-75
2022/02/22 00:10:26;;;;;;;8.70;5.25;;;;;;;5.86;56.56;100360.28;461427;112;922565;-75
2022/02/22 00:11:30;;;;;;;8.35;5.34;;;;;;;5.86;56.56;100368.39;462282;114;931035;-75
2022/02/22 00:12:33;;;;;;;7.16;4.97;;;;;;;5.85;56.50;100358.59;461520;113;922933;-75
2022/02/22 00:13:36;;;;;;;9.28;5.64;;;;;;;5.84;56.48;100357.75;452867;114;922740;-75
2022/02/22 00:14:39;;;;;;;8.69;6.05;;;;;;;5.83;56.51;100360.67;444101;116;922832;-75
2022/02/22 00:15:43;;;;;;;7.43;4.85;;;;;;;5.82;56.54;100359.83;450317;117;923228;-75
2022/02/22 00:16:47;;;;;;;6.73;5.03;;;;;;;5.83;56.55;100360.67;462549;112;922809;-75
2022/02/22 00:17:50;;;;;;;5.15;4.37;;;;;;;5.83;56.48;100355.27;461570;112;925377;-77
2022/02/22 00:18:53;;;;;;;6.26;4.61;;;;;;;5.82;56.44;100354.42;461834;113;922955;-74
2022/02/22 00:19:57;;;;;;;5.71;4.13;;;;;;;5.81;56.39;100349.19;461171;112;923164;-75
2022/02/22 00:21:00;;;;;;;6.42;5.31;;;;;;;5.82;56.36;100358.98;459383;113;922836;-74
2022/02/22 00:22:04;;;;;;;5.46;4.08;;;;;;;5.81;56.28;100360.02;452899;115;922696;-75
2022/02/22 00:23:07;;;;;;;6.80;5.49;;;;;;;5.80;56.28;100361.88;452391;114;930666;-76
2022/02/22 00:24:11;;;;;;;6.75;4.41;;;;;;;5.80;56.32;100358.33;462583;114;931056;-76
2022/02/22 00:25:14;;;;;;;7.01;4.24;;;;;;;5.78;56.29;100355.84;462791;112;922652;-75
2022/02/22 00:26:19;;;;;;;6.85;4.88;;;;;;;5.79;56.31;100359.35;460617;113;922897;-75
2022/02/22 00:27:22;;;;;;;6.08;4.67;;;;;;;5.78;56.29;100358.54;460798;114;930495;-74
2022/02/22 00:28:26;;;;;;;6.72;5.32;;;;;;;5.79;56.27;100351.23;461393;113;930611;-77
2022/02/22 00:29:29;;;;;;;7.73;5.23;;;;;;;5.79;56.27;100356.64;461604;112;922738;-75
2022/02/22 00:30:33;;;;;;;7.01;5.93;;;;;;;5.79;56.27;100353.94;461121;112;922631;-76
2022/02/22 00:31:37;;;;;;;8.15;5.96;;;;;;;5.79;56.28;100356.64;462065;112;922542;-75
2022/02/22 00:32:40;;;;;;;8.29;5.48;;;;;;;5.79;56.29;100352.08;462023;112;922873;-76
2022/02/22 00:33:44;;;;;;;10.29;6.19;;;;;;;5.80;56.32;100352.92;462153;112;922787;-75
2022/02/22 00:34:48;;;;;;;8.85;6.44;;;;;;;5.80;56.40;100356.47;462291;114;930590;-75
2022/02/22 00:35:52;;;;;;;10.39;5.93;;;;;;;5.81;56.46;100346.48;462475;112;922922;-76
2022/02/22 00:36:55;;;;;;;8.82;5.99;;;;;;;5.81;56.36;100351.89;462067;112;922459;-74
2022/02/22 00:37:59;;;;;;;6.24;5.49;;;;;;;5.81;56.36;100351.89;461774;113;922557;-75
2022/02/22 00:39:05;;;;;;;8.56;6.59;;;;;;;5.80;56.38;100355.63;461988;114;923247;-76
2022/02/22 00:40:10;;;;;;;8.27;6.51;;;;;;;5.79;56.41;100357.48;462262;113;922491;-75
2022/02/22 00:41:14;;;;;;;7.53;5.81;;;;;;;5.80;56.42;100358.33;461651;113;922807;-75
2022/02/22 00:42:17;;;;;;;9.02;5.74;;;;;;;5.81;56.32;100362.72;460724;113;922736;-75
2022/02/22 00:43:21;;;;;;;6.64;5.09;;;;;;;5.79;56.27;100368.31;462507;112;922954;-75
2022/02/22 00:44:27;;;;;;;6.91;5.08;;;;;;;5.78;56.24;100360.41;460976;112;922598;-75
2022/02/22 00:45:30;;;;;;;8.16;4.92;;;;;;;5.77;56.24;100362.27;454743;114;922611;-76
2022/02/22 00:46:34;;;;;;;5.47;4.12;;;;;;;5.77;56.31;100359.56;454276;114;922932;-75
2022/02/22 00:47:38;;;;;;;6.13;4.17;;;;;;;5.77;56.28;100364.97;452966;116;923055;-76
2022/02/22 00:48:42;;;;;;;8.26;4.64;;;;;;;5.78;56.24;100363.95;448525;116;930525;-75
2022/02/22 00:49:46;;;;;;;5.57;4.20;;;;;;;5.80;56.18;100363.73;451004;116;930846;-76
2022/02/22 00:50:49;;;;;;;5.21;4.44;;;;;;;5.80;56.15;100367.28;445350;115;922624;-75
2022/02/22 00:51:53;;;;;;;7.52;4.43;;;;;;;5.81;56.14;100368.97;452574;116;922695;-76
2022/02/22 00:52:56;;;;;;;6.81;4.16;;;;;;;5.82;56.12;100365.24;451212;116;930525;-75
2022/02/22 00:54:00;;;;;;;6.15;4.48;;;;;;;5.85;56.10;100366.71;462403;113;922706;-75
2022/02/22 00:55:04;;;;;;;6.22;4.18;;;;;;;5.85;56.08;100369.42;464032;113;923066;-75
2022/02/22 00:56:07;;;;;;;5.51;4.35;;;;;;;5.86;56.16;100371.10;463052;112;923097;-76
2022/02/22 00:57:11;;;;;;;5.26;4.39;;;;;;;5.88;56.02;100370.95;463534;112;922818;-75
2022/02/22 00:58:14;;;;;;;6.60;4.08;;;;;;;5.88;55.96;100369.09;462569;111;922966;-75
2022/02/22 00:59:17;;;;;;;5.26;4.28;;;;;;;5.89;55.91;100368.06;463689;112;923303;-75
2022/02/22 01:00:22;;;;;;;5.23;4.19;;;;;;;5.90;55.87;100361.60;463403;112;930479;-76
2022/02/22 01:01:26;;;;;;;5.74;4.16;;;;;;;5.91;55.78;100362.44;463214;112;922659;-75
2022/02/22 01:02:31;;;;;;;7.66;4.19;;;;;;;5.91;55.86;100360.58;462684;113;922976;-75
2022/02/22 01:03:34;;;;;;;4.97;4.32;;;;;;;5.92;55.77;100366.83;464332;112;922561;-75
2022/02/22 01:04:37;;;;;;;5.56;4.10;;;;;;;5.92;55.72;100362.27;463321;112;922946;-75
2022/02/22 01:05:41;;;;;;;7.72;4.62;;;;;;;5.93;55.72;100363.10;463482;112;930576;-76
2022/02/22 01:06:44;;;;;;;7.18;4.74;;;;;;;5.93;55.74;100354.98;463337;111;923314;-75
2022/02/22 01:07:47;;;;;;;4.67;3.94;;;;;;;5.92;55.74;100362.27;463175;112;922594;-75
2022/02/22 01:08:51;;;;;;;6.64;4.32;;;;;;;5.93;55.81;100354.98;463431;112;923831;-75
2022/02/22 01:09:54;;;;;;;8.41;4.82;;;;;;;5.93;55.82;100357.69;462862;111;930888;-75
2022/02/22 01:10:57;;;;;;;10.49;9.43;;;;;;;5.94;55.82;100351.25;463452;111;922913;-75
2022/02/22 01:12:00;;;;;;;13.43;12.08;;;;;;;5.95;55.81;100347.53;463558;113;923047;-75
2022/02/22 01:13:04;;;;;;;13.47;12.09;;;;;;;5.96;55.77;100349.17;463629;111;922517;-75
2022/02/22 01:14:08;;;;;;;15.23;13.85;;;;;;;5.95;55.78;100348.37;464111;111;923233;-75
2022/02/22 01:15:11;;;;;;;14.40;12.95;;;;;;;5.96;55.76;100352.72;463168;113;930395;-75
2022/02/22 01:16:15;;;;;;;17.94;14.13;;;;;;;5.97;55.71;100345.45;462759;112;922649;-76
2022/02/22 01:17:18;;;;;;;17.46;15.61;;;;;;;5.95;55.67;100345.66;463949;112;930620;-75
2022/02/22 01:18:22;;;;;;;15.34;12.25;;;;;;;5.95;55.68;100347.53;463272;113;922563;-75
2022/02/22 01:19:44;;;;;;;11.27;9.77;;;;;;;5.94;55.64;100341.27;463477;112;922946;-76
2022/02/22 01:21:05;;;;;;;10.96;9.92;;;;;;;5.93;55.70;100344.16;463914;111;922588;-76
2022/02/22 01:22:26;;;;;;;10.84;7.18;;;;;;;5.91;55.73;100336.23;461994;112;922885;-74
2022/02/22 01:23:30;;;;;;;10.60;8.31;;;;;;;5.89;55.81;100335.59;464310;113;922563;-75
2022/02/22 01:24:33;;;;;;;8.98;6.96;;;;;;;5.88;55.84;100333.08;464498;112;922470;-76
2022/02/22 01:25:38;;;;;;;10.16;6.64;;;;;;;5.85;55.87;100332.37;462905;112;922413;-75
2022/02/22 01:26:41;;;;;;;14.45;10.35;;;;;;;5.85;55.94;100328.83;463089;112;922567;-76
2022/02/22 01:27:44;;;;;;;15.29;9.04;;;;;;;5.84;55.97;100333.41;464135;113;922598;-74
2022/02/22 01:29:05;;;;;;;16.16;11.39;;;;;;;5.84;56.00;100336.11;462829;112;922776;-76
2022/02/22 01:30:18;;;;;;;17.04;12.44;;;;;;;5.84;56.00;100325.29;462979;111;922948;-74
2022/02/22 01:31:21;;;;;;;14.67;12.51;;;;;;;5.82;56.01;100327.36;462680;113;922845;-77
2022/02/22 01:32:25;;;;;;;14.86;11.63;;;;;;;5.82;56.02;100330.07;463855;113;922534;-75
2022/02/22 01:33:28;;;;;;;20.18;13.09;;;;;;;5.82;55.99;100326.52;462710;111;922579;-74
2022/02/22 01:34:32;;;;;;;21.11;13.68;;;;;;;5.81;56.03;100325.69;463430;112;923532;-73
2022/02/22 01:35:35;;;;;;;14.47;9.58;;;;;;;5.81;55.98;100314.02;463431;112;922561;-77
2022/02/22 01:36:40;;;;;;;14.36;9.31;;;;;;;5.80;55.96;100321.30;457733;114;922965;-76
2022/02/22 01:37:43;;;;;;;12.81;9.31;;;;;;;5.82;55.98;100321.11;457303;113;922574;-75
2022/02/22 01:38:47;;;;;;;14.38;9.97;;;;;;;5.81;56.08;100314.02;463796;111;923004;-75
2022/02/22 01:39:50;;;;;;;14.30;8.07;;;;;;;5.82;56.06;100321.11;461366;113;930229;-75
2022/02/22 01:40:55;;;;;;;12.66;9.16;;;;;;;5.82;56.12;100321.11;461917;112;922499;-75
2022/02/22 01:42:00;;;;;;;15.83;9.69;;;;;;;5.82;56.14;100321.95;457970;114;930287;-75
2022/02/22 01:43:03;;;;;;;18.74;12.94;;;;;;;5.83;56.15;100314.67;458750;113;922406;-75
2022/02/22 01:44:07;;;;;;;17.39;12.24;;;;;;;5.83;56.16;100320.09;463468;113;923277;-76
2022/02/22 01:45:10;;;;;;;11.65;9.64;;;;;;;5.82;56.20;100313.84;463445;111;924854;-76
2022/02/22 01:46:14;;;;;;;15.98;10.76;;;;;;;5.82;56.17;100316.55;462155;112;929937;-73
2022/02/22 01:47:18;;;;;;;14.71;10.23;;;;;;;5.82;56.16;100304.88;462582;113;923019;-75
2022/02/22 01:48:21;;;;;;;12.22;9.38;;;;;;;5.82;56.14;100315.70;461970;112;922943;-74
2022/02/22 01:49:25;;;;;;;11.49;9.66;;;;;;;5.82;56.13;100313.84;461193;113;922846;-76
2022/02/22 01:50:28;;;;;;;14.46;10.29;;;;;;;5.81;56.17;100308.61;461372;111;923951;-74
2022/02/22 01:51:32;;;;;;;13.77;10.89;;;;;;;5.82;56.17;100318.41;462362;113;922944;-75
2022/02/22 01:52:35;;;;;;;16.82;12.35;;;;;;;5.81;56.18;100324.84;462750;113;922703;-75
2022/02/22 01:53:39;;;;;;;16.90;12.31;;;;;;;5.81;56.19;100319.43;461733;112;923003;-76
2022/02/22 01:54:44;;;;;;;17.84;12.34;;;;;;;5.81;56.22;100325.69;462730;111;922237;-76
2022/02/22 01:55:48;;;;;;;16.90;14.72;;;;;;;5.81;56.27;100322.14;461823;112;922382;-74
2022/02/22 01:56:51;;;;;;;19.64;13.56;;;;;;;5.80;56.26;100312.34;462535;113;930224;-75
2022/02/22 01:57:54;;;;;;;22.42;19.87;;;;;;;5.79;56.29;100318.77;462704;111;930548;-75
2022/02/22 01:58:58;;;;;;;21.04;18.67;;;;;;;5.79;56.33;100318.77;460772;112;930408;-76
2022/02/22 02:00:20;;;;;;;19.34;16.72;;;;;;;5.79;56.36;100318.77;448845;118;922756;-73
2022/02/22 02:01:41;;;;;;;17.59;15.62;;;;;;;5.79;56.44;100318.77;462124;112;922415;-73
2022/02/22 02:03:02;;;;;;;19.85;16.74;;;;;;;5.77;56.49;100320.84;463828;112;922343;-72
2022/02/22 02:04:29;;;;;;;19.36;15.84;;;;;;;5.75;56.60;100321.03;462910;112;922241;-73
2022/02/22 02:05:29;;;;;;;15.26;13.17;;;;;;;5.74;56.79;100313.94;462213;112;922596;-73
2022/02/22 02:06:34;;;;;;;15.04;12.32;;;;;;;5.76;56.89;100313.75;462868;112;922282;-74
2022/02/22 02:07:37;;;;;;;17.03;14.57;;;;;;;5.76;56.85;100321.87;462771;113;929924;-74
2022/02/22 02:08:41;;;;;;;17.73;13.67;;;;;;;5.75;56.83;100315.62;461568;114;922208;-72
2022/02/22 02:09:44;;;;;;;14.74;13.22;;;;;;;5.75;56.88;100326.44;462919;112;922206;-74
2022/02/22 02:10:47;;;;;;;19.44;11.39;;;;;;;5.75;56.98;100320.19;462230;111;922223;-74
2022/02/22 02:11:56;;;;;;;14.03;10.77;;;;;;;5.76;56.98;100328.13;462965;112;922246;-73
2022/02/22 02:13:00;;;;;;;12.25;10.85;;;;;;;5.76;56.99;100322.71;461625;112;922213;-72
2022/02/22 02:14:03;;;;;;;14.19;11.17;;;;;;;5.76;57.00;100316.46;462458;112;922348;-72
2022/02/22 02:15:07;;;;;;;15.35;11.53;;;;;;;5.76;57.07;100316.46;463173;113;922805;-73
2022/02/22 02:16:11;;;;;;;15.40;11.86;;;;;;;5.75;57.06;100312.08;462508;112;922117;-75
2022/02/22 02:17:14;;;;;;;14.23;11.89;;;;;;;5.74;57.05;100318.50;463374;114;922195;-74
2022/02/22 02:18:17;;;;;;;15.93;11.81;;;;;;;5.74;57.03;100313.09;463912;112;922244;-74
2022/02/22 02:19:21;;;;;;;19.45;13.21;;;;;;;5.72;57.10;100318.72;463369;112;922542;-73
2022/02/22 02:20:26;;;;;;;17.19;13.13;;;;;;;5.72;57.14;100316.02;464237;112;922799;-72
2022/02/22 02:21:30;;;;;;;16.57;12.54;;;;;;;5.73;57.17;100314.15;465177;112;922160;-75
2022/02/22 02:22:35;;;;;;;15.00;12.17;;;;;;;5.72;57.20;100315.17;461995;112;922228;-71
2022/02/22 02:23:38;;;;;;;17.09;11.63;;;;;;;5.71;57.25;100311.63;462011;112;922081;-74
2022/02/22 02:24:42;;;;;;;14.94;11.65;;;;;;;5.71;57.33;100305.37;460767;112;930057;-73
2022/02/22 02:25:47;;;;;;;15.28;11.80;;;;;;;5.70;57.40;100303.69;452173;116;923145;-74
2022/02/22 02:26:51;;;;;;;13.86;11.14;;;;;;;5.70;57.48;100306.40;447221;117;922513;-73
2022/02/22 02:27:55;;;;;;;15.06;11.27;;;;;;;5.70;57.52;100309.10;448866;117;922463;-75
2022/02/22 02:28:58;;;;;;;16.33;11.07;;;;;;;5.69;57.58;100302.01;461394;113;922316;-75
2022/02/22 02:30:04;;;;;;;18.44;11.39;;;;;;;5.67;57.64;100307.63;461422;113;922364;-75
2022/02/22 02:31:08;;;;;;;15.04;11.52;;;;;;;5.68;57.65;100311.18;461367;112;922502;-75
2022/02/22 02:32:11;;;;;;;12.78;10.96;;;;;;;5.66;57.66;100302.41;461209;113;923320;-74
2022/02/22 02:33:14;;;;;;;15.28;10.34;;;;;;;5.66;57.68;100303.24;461170;114;922431;-75
2022/02/22 02:34:22;;;;;;;11.49;9.54;;;;;;;5.65;57.78;100308.84;461663;113;922677;-73
2022/02/22 02:35:25;;;;;;;13.22;10.37;;;;;;;5.64;57.88;100301.74;461926;112;922207;-74
2022/02/22 02:36:32;;;;;;;13.59;9.05;;;;;;;5.62;57.96;100295.70;461845;112;922320;-74
2022/02/22 02:37:38;;;;;;;15.31;10.42;;;;;;;5.59;58.06;100298.77;461563;114;930320;-72
2022/02/22 02:38:43;;;;;;;13.48;9.76;;;;;;;5.59;58.11;100305.02;459362;112;922425;-76
2022/02/22 02:39:46;;;;;;;12.27;10.24;;;;;;;5.56;58.18;100302.70;462139;114;922501;-73
2022/02/22 02:40:50;;;;;;;11.24;9.06;;;;;;;5.56;58.23;100291.05;462332;114;922736;-74
2022/02/22 02:41:54;;;;;;;15.19;10.61;;;;;;;5.54;58.36;100299.34;463071;114;922454;-73
2022/02/22 02:42:59;;;;;;;12.81;9.21;;;;;;;5.53;58.43;100300.37;462627;112;922452;-74
2022/02/22 02:44:09;;;;;;;13.64;9.84;;;;;;;5.53;58.58;100302.23;463590;113;922646;-73
2022/02/22 02:45:13;;;;;;;;;;;;;;;5.52;58.57;100298.69;468788;114;921829;-74
2022/02/22 02:46:17;;;;;;;12.78;7.86;;;;;;;5.52;58.62;100287.87;461820;114;922225;-75
2022/02/22 02:47:20;;;;;;;11.48;7.53;;;;;;;5.48;58.81;100296.55;460908;112;922413;-73
2022/02/22 02:48:23;;;;;;;12.75;8.07;;;;;;;5.48;58.81;100296.55;460750;112;922505;-73
2022/02/22 02:49:28;;;;;;;10.73;8.44;;;;;;;5.46;58.95;100288.62;460024;112;922693;-73
2022/02/22 02:50:32;;;;;;;10.48;7.30;;;;;;;5.46;59.08;100281.34;462529;112;922270;-73
2022/02/22 02:51:36;;;;;;;10.69;7.26;;;;;;;5.48;59.12;100280.33;462424;112;922362;-75
2022/02/22 02:52:39;;;;;;;12.48;7.88;;;;;;;5.48;59.19;100288.44;460745;114;922854;-71
2022/02/22 02:53:42;;;;;;;11.34;8.53;;;;;;;5.48;59.26;100291.14;462302;114;922355;-74
2022/02/22 02:54:46;;;;;;;12.29;7.97;;;;;;;5.49;59.27;100288.26;461325;112;922267;-73
2022/02/22 02:55:49;;;;;;;9.74;7.53;;;;;;;5.48;59.29;100291.98;461526;112;922988;-75
2022/02/22 02:56:52;;;;;;;15.16;7.42;;;;;;;5.48;59.38;100297.39;460186;114;923025;-73
2022/02/22 02:57:57;;;;;;;9.16;6.76;;;;;;;5.48;59.41;100296.55;459718;112;927269;-73
2022/02/22 02:59:05;;;;;;;11.61;7.15;;;;;;;5.48;59.43;100293.84;460277;112;922779;-71
2022/02/22 03:00:09;;;;;;;10.96;7.66;;;;;;;5.46;59.45;100292.16;460750;112;922517;-73
2022/02/22 03:01:13;;;;;;;10.93;7.07;;;;;;;5.45;59.53;100303.19;460169;112;922510;-74
2022/02/22 03:02:16;;;;;;;13.00;8.09;;;;;;;5.44;59.52;100298.80;460856;113;922506;-73
2022/02/22 03:03:19;;;;;;;12.00;7.77;;;;;;;5.44;59.57;100301.52;460848;112;922631;-74
2022/02/22 03:04:23;;;;;;;11.68;6.77;;;;;;;5.44;59.52;100293.40;461410;112;930641;-74
2022/02/22 03:05:26;;;;;;;12.14;7.85;;;;;;;5.43;59.63;100295.27;459813;112;922986;-76
2022/02/22 03:06:30;;;;;;;8.39;6.56;;;;;;;5.43;59.75;100300.67;460852;112;930373;-73
2022/02/22 03:07:33;;;;;;;9.81;6.64;;;;;;;5.44;59.77;100296.10;461300;112;923221;-73
2022/02/22 03:08:36;;;;;;;9.37;7.45;;;;;;;5.44;59.81;100285.29;461081;114;922696;-74
2022/02/22 03:09:40;;;;;;;10.11;7.28;;;;;;;5.43;59.79;100289.85;461174;114;922728;-72
2022/02/22 03:10:43;;;;;;;11.40;7.52;;;;;;;5.42;59.89;100288.17;461404;112;922735;-74
2022/02/22 03:11:47;;;;;;;9.14;7.41;;;;;;;5.42;59.98;100295.44;461262;112;922898;-77
2022/02/22 03:12:50;;;;;;;10.89;7.84;;;;;;;5.42;60.02;100296.28;459661;112;922364;-73
2022/02/22 03:13:53;;;;;;;9.34;7.22;;;;;;;5.41;60.14;100286.48;461328;112;922875;-74
2022/02/22 03:14:57;;;;;;;11.53;8.22;;;;;;;5.41;60.14;100291.89;460724;112;923382;-72
2022/02/22 03:16:00;;;;;;;11.29;8.64;;;;;;;5.41;60.21;100297.30;460111;112;922780;-73
2022/02/22 03:17:04;;;;;;;9.17;8.05;;;;;;;5.41;60.26;100285.64;460312;112;922617;-75
2022/02/22 03:18:12;;;;;;;13.02;8.28;;;;;;;5.41;60.29;100300.01;459923;112;923654;-75
2022/02/22 03:19:14;;;;;;;13.41;9.82;;;;;;;5.40;60.29;100292.91;458750;112;930409;-75
2022/02/22 03:20:19;;;;;;;13.92;9.57;;;;;;;5.40;60.35;100295.63;460462;112;922468;-75
2022/02/22 03:21:22;;;;;;;13.85;10.35;;;;;;;5.41;60.41;100293.76;460297;112;922474;-74
2022/02/22 03:22:26;;;;;;;10.49;9.41;;;;;;;5.41;60.46;100296.46;459316;112;930827;-73
2022/02/22 03:23:29;;;;;;;12.11;9.51;;;;;;;5.41;60.50;100296.46;460590;112;930525;-72
2022/02/22 03:24:32;;;;;;;14.31;10.18;;;;;;;5.41;60.52;100294.59;459563;112;922549;-75
2022/02/22 03:25:36;;;;;;;15.21;11.24;;;;;;;5.40;60.54;100284.80;459851;114;922463;-74
2022/02/22 03:26:39;;;;;;;16.09;10.67;;;;;;;5.40;60.53;100290.21;460227;114;930405;-73
2022/02/22 03:27:42;;;;;;;13.85;10.61;;;;;;;5.39;60.64;100290.42;460250;112;923202;-75
2022/02/22 03:28:46;;;;;;;18.14;10.46;;;;;;;5.38;60.70;100292.28;461164;112;922659;-74
2022/02/22 03:29:49;;;;;;;14.03;10.78;;;;;;;5.38;60.73;100284.17;460572;114;922917;-76
2022/02/22 03:30:53;;;;;;;13.37;10.58;;;;;;;5.38;60.77;100286.88;460326;114;930365;-73
2022/02/22 03:31:57;;;;;;;14.83;10.73;;;;;;;5.37;60.87;100284.36;460787;112;922605;-74
2022/02/22 03:33:01;;;;;;;13.33;8.99;;;;;;;5.37;60.99;100281.66;460439;114;922515;-73
2022/02/22 03:34:04;;;;;;;13.43;8.16;;;;;;;5.36;61.07;100283.52;461130;114;931138;-75
2022/02/22 03:35:07;;;;;;;14.87;8.38;;;;;;;5.36;61.16;100285.38;461124;114;922585;-74
2022/02/22 03:36:13;;;;;;;11.69;8.61;;;;;;;5.35;61.27;100279.12;460078;113;922630;-73
2022/02/22 03:37:16;;;;;;;12.89;8.52;;;;;;;5.35;61.31;100278.28;461542;112;922642;-74
2022/02/22 03:38:19;;;;;;;8.59;6.89;;;;;;;5.35;61.34;100276.42;459816;114;930490;-74
2022/02/22 03:39:23;;;;;;;12.85;8.21;;;;;;;5.35;61.38;100286.39;459350;112;922929;-73
2022/02/22 03:40:27;;;;;;;11.06;8.08;;;;;;;5.34;61.45;100277.48;458629;112;922688;-73
2022/02/22 03:41:30;;;;;;;11.36;8.11;;;;;;;5.34;61.54;100285.59;459070;114;930591;-73
2022/02/22 03:42:33;;;;;;;11.29;8.47;;;;;;;5.33;61.55;100283.06;459077;112;922522;-74
2022/02/22 03:43:37;;;;;;;11.68;7.40;;;;;;;5.32;61.61;100270.57;459535;112;930613;-73
2022/02/22 03:44:40;;;;;;;12.43;8.34;;;;;;;5.32;61.64;100275.98;460459;112;930626;-74
2022/02/22 03:45:44;;;;;;;10.10;7.28;;;;;;;5.30;61.72;100281.56;459521;114;922556;-72
2022/02/22 03:46:47;;;;;;;8.81;6.96;;;;;;;5.29;61.82;100273.66;461238;114;923071;-73
2022/02/22 03:47:51;;;;;;;8.71;7.37;;;;;;;5.28;61.84;100272.82;460854;113;923102;-72
2022/02/22 03:48:54;;;;;;;18.42;8.90;;;;;;;5.27;61.90;100276.55;461572;112;923027;-74
2022/02/22 03:49:59;;;;;;;12.33;8.34;;;;;;;5.27;61.93;100271.14;460707;114;923137;-73
2022/02/22 03:51:03;;;;;;;16.02;8.04;;;;;;;5.26;61.94;100274.86;461546;112;923000;-72
2022/02/22 03:52:07;;;;;;;12.86;8.81;;;;;;;5.26;61.98;100271.31;461658;112;922564;-74
2022/02/22 03:53:10;;;;;;;13.07;8.55;;;;;;;5.26;62.04;100272.16;461235;114;923108;-75
2022/02/22 03:54:15;;;;;;;10.46;7.97;;;;;;;5.25;62.07;100270.48;461817;114;923221;-74
2022/02/22 03:55:19;;;;;;;11.54;8.30;;;;;;;5.27;62.09;100273.00;462525;113;922616;-75
2022/02/22 03:56:23;;;;;;;11.18;8.45;;;;;;;5.25;62.12;100270.48;461007;113;922745;-71
2022/02/22 03:57:26;;;;;;;11.14;9.89;;;;;;;5.25;62.16;100267.77;462869;111;930605;-73
2022/02/22 03:58:30;;;;;;;11.51;8.93;;;;;;;5.26;62.18;100265.91;462415;113;922996;-72
2022/02/22 03:59:33;;;;;;;12.72;9.94;;;;;;;5.26;62.23;100268.61;461972;114;930066;-74
2022/02/22 04:00:36;;;;;;;14.99;10.86;;;;;;;5.26;62.30;100269.45;462046;113;923122;-73
2022/02/22 04:01:40;;;;;;;15.77;9.99;;;;;;;5.27;62.25;100265.73;462017;112;922889;-76
2022/02/22 04:02:44;;;;;;;13.67;10.13;;;;;;;5.27;62.30;100265.73;461438;114;923227;-72
2022/02/22 04:03:47;;;;;;;13.14;11.24;;;;;;;5.27;62.31;100265.73;459564;111;922830;-73
2022/02/22 04:04:50;;;;;;;16.66;11.01;;;;;;;5.27;62.36;100268.44;461437;112;922623;-75
2022/02/22 04:05:54;;;;;;;11.08;9.98;;;;;;;5.27;62.40;100265.73;461335;112;922916;-73
2022/02/22 04:06:57;;;;;;;14.62;10.30;;;;;;;5.27;62.43;100268.44;459378;114;923010;-72
2022/02/22 04:08:01;;;;;;;17.74;12.28;;;;;;;5.28;62.43;100258.47;460933;113;922486;-75
2022/02/22 04:09:04;;;;;;;14.52;11.90;;;;;;;5.29;62.46;100262.84;461433;112;923269;-73
2022/02/22 04:10:11;;;;;;;15.31;11.82;;;;;;;5.30;62.52;100264.50;460995;113;923101;-75
2022/02/22 04:11:16;;;;;;;14.29;11.13;;;;;;;5.32;62.53;100267.86;459789;112;923105;-73
2022/02/22 04:12:19;;;;;;;14.85;10.37;;;;;;;5.33;62.49;100261.44;459741;112;922671;-73
2022/02/22 04:13:23;;;;;;;11.78;9.96;;;;;;;5.33;62.52;100262.28;461014;113;922568;-73
2022/02/22 04:14:26;;;;;;;16.14;10.48;;;;;;;5.34;62.52;100258.55;461086;112;930348;-73
2022/02/22 04:15:30;;;;;;;11.76;8.84;;;;;;;5.36;62.48;100261.89;461257;112;923468;-73
2022/02/22 04:16:33;;;;;;;13.64;9.06;;;;;;;5.36;62.48;100253.78;462210;112;930980;-73
2022/02/22 04:17:37;;;;;;;14.35;9.69;;;;;;;5.38;62.41;100267.95;462271;111;923023;-73
2022/02/22 04:18:41;;;;;;;13.55;8.62;;;;;;;5.38;62.43;100265.25;461297;113;930434;-75
2022/02/22 04:19:44;;;;;;;19.75;9.26;;;;;;;5.40;62.47;100263.17;462496;112;922535;-73
2022/02/22 04:20:47;;;;;;;11.45;9.33;;;;;;;5.40;62.45;100257.77;462538;112;922656;-73
2022/02/22 04:21:50;;;;;;;14.49;9.98;;;;;;;5.42;62.41;100265.70;461633;112;922695;-72
2022/02/22 04:22:54;;;;;;;12.16;8.81;;;;;;;5.41;62.38;100262.16;463078;114;922552;-74
2022/02/22 04:23:57;;;;;;;12.58;10.16;;;;;;;5.41;62.37;100259.45;462426;112;922504;-74
2022/02/22 04:25:01;;;;;;;13.56;10.71;;;;;;;5.42;62.39;100265.70;463430;111;922958;-74
2022/02/22 04:26:04;;;;;;;13.85;9.08;;;;;;;5.43;62.36;100261.97;463633;113;922555;-73
2022/02/22 04:27:08;;;;;;;11.37;8.46;;;;;;;5.42;62.32;100266.54;461910;114;923140;-73
2022/02/22 04:28:12;;;;;;;16.74;9.78;;;;;;;5.42;62.35;100271.95;459867;113;930115;-74
2022/02/22 04:29:15;;;;;;;15.98;8.79;;;;;;;5.43;62.31;100264.68;461150;112;922548;-74
2022/02/22 04:30:20;;;;;;;14.83;9.56;;;;;;;5.42;62.32;100263.84;460548;112;922843;-74
2022/02/22 04:31:24;;;;;;;14.37;9.86;;;;;;;5.43;62.38;100268.22;459494;112;922993;-72
2022/02/22 04:32:27;;;;;;;18.87;9.55;;;;;;;5.41;62.37;100270.27;461524;111;922756;-74
2022/02/22 04:33:30;;;;;;;18.54;10.62;;;;;;;5.40;62.36;100268.59;460017;111;922676;-72
2022/02/22 04:34:34;;;;;;;17.81;9.89;;;;;;;5.40;62.42;100270.48;460161;114;922801;-72
2022/02/22 04:35:38;;;;;;;13.50;10.55;;;;;;;5.40;62.49;100273.18;460226;113;922589;-73
2022/02/22 04:36:41;;;;;;;15.72;10.00;;;;;;;5.40;62.57;100273.99;460221;111;930510;-75
2022/02/22 04:37:45;;;;;;;15.91;9.81;;;;;;;5.40;62.57;100276.69;461447;112;922714;-75
2022/02/22 04:38:48;;;;;;;13.80;10.41;;;;;;;5.42;62.64;100279.22;461150;113;922651;-73
2022/02/22 04:39:51;;;;;;;15.38;10.68;;;;;;;5.44;62.54;100277.17;461571;113;922884;-74
2022/02/22 04:40:55;;;;;;;16.05;11.03;;;;;;;5.44;62.56;100279.88;461435;111;922833;-72
2022/02/22 04:41:58;;;;;;;20.79;11.47;;;;;;;5.44;62.53;100283.42;460970;112;930372;-74
2022/02/22 04:43:02;;;;;;;17.79;11.48;;;;;;;5.45;62.51;100292.38;461940;113;923022;-74
2022/02/22 04:44:05;;;;;;;17.64;12.22;;;;;;;5.45;62.60;100287.81;462091;112;922587;-74
2022/02/22 04:45:09;;;;;;;17.75;11.79;;;;;;;5.45;62.53;100293.22;462053;112;923020;-74
2022/02/22 04:46:14;;;;;;;14.08;11.03;;;;;;;5.46;62.60;100291.33;461632;113;922486;-76
2022/02/22 04:47:18;;;;;;;17.61;11.87;;;;;;;5.46;62.54;100292.16;463724;113;922648;-75
2022/02/22 04:48:21;;;;;;;13.31;10.96;;;;;;;5.47;62.56;100290.30;453887;113;923046;-73
2022/02/22 04:49:24;;;;;;;19.91;12.41;;;;;;;5.48;62.53;100296.55;445600;116;922538;-74
2022/02/22 04:50:28;;;;;;;18.23;11.99;;;;;;;5.49;62.59;100292.83;453993;114;923091;-72
2022/02/22 04:51:32;;;;;;;14.68;11.92;;;;;;;5.49;62.59;100299.08;453521;114;922873;-75
2022/02/22 04:52:36;;;;;;;16.52;12.48;;;;;;;5.50;62.63;100300.76;452730;115;922686;-74
2022/02/22 04:53:39;;;;;;;21.39;13.45;;;;;;;5.52;62.64;100311.36;450875;114;922647;-74
2022/02/22 04:54:43;;;;;;;18.53;12.56;;;;;;;5.53;62.61;100310.34;451409;114;930634;-72
2022/02/22 04:55:46;;;;;;;15.38;13.41;;;;;;;5.54;62.55;100317.43;451739;115;922563;-74